sensor_id;sensor_type;location;lat;lon;timestamp;pressure;altitude;pressure_sealevel;temperature;humidity
7668;BME280;3876;42.204;24.686;2023-02-11T00:00:47;101347.56;;;-3.32;72.14
7668;BME280;3876;42.204;24.686;2023-02-11T00:03:14;101346.03;;;-3.30;72.00
7668;BME280;3876;42.204;24.686;2023-02-11T00:05:41;101350.06;;;-3.32;71.71
7668;BME280;3876;42.204;24.686;2023-02-11T00:08:08;101355.69;;;-3.36;71.47
7668;BME280;3876;42.204;24.686;2023-02-11T00:10:36;101363.81;;;-3.40;71.67
7668;BME280;3876;42.204;24.686;2023-02-11T00:13:02;101360.19;;;-3.45;72.02
7668;BME280;3876;42.204;24.686;2023-02-11T00:15:29;101362.34;;;-3.51;72.42
7668;BME280;3876;42.204;24.686;2023-02-11T00:17:56;101357.09;;;-3.55;72.54
7668;BME280;3876;42.204;24.686;2023-02-11T00:20:23;101356.97;;;-3.57;72.16
7668;BME280;3876;42.204;24.686;2023-02-11T00:22:49;101360.94;;;-3.75;72.06
7668;BME280;3876;42.204;24.686;2023-02-11T00:25:16;101356.69;;;-3.76;71.97
7668;BME280;3876;42.204;24.686;2023-02-11T00:27:44;101365.16;;;-3.74;71.88
7668;BME280;3876;42.204;24.686;2023-02-11T00:30:12;101355.94;;;-3.75;72.06
7668;BME280;3876;42.204;24.686;2023-02-11T00:32:38;101358.44;;;-3.75;72.14
7668;BME280;3876;42.204;24.686;2023-02-11T00:35:07;101354.78;;;-3.80;72.22
7668;BME280;3876;42.204;24.686;2023-02-11T00:37:33;101362.72;;;-3.87;72.41
7668;BME280;3876;42.204;24.686;2023-02-11T00:40:01;101369.28;;;-3.89;72.63
7668;BME280;3876;42.204;24.686;2023-02-11T00:42:28;101364.09;;;-3.92;72.62
7668;BME280;3876;42.204;24.686;2023-02-11T00:44:56;101367.47;;;-3.92;72.66
7668;BME280;3876;42.204;24.686;2023-02-11T00:47:23;101360.66;;;-3.94;72.61
7668;BME280;3876;42.204;24.686;2023-02-11T00:49:50;101361.75;;;-4.04;72.77
7668;BME280;3876;42.204;24.686;2023-02-11T00:52:17;101354.88;;;-4.06;72.96
7668;BME280;3876;42.204;24.686;2023-02-11T00:54:43;101358.56;;;-4.01;72.90
7668;BME280;3876;42.204;24.686;2023-02-11T00:57:10;101361.81;;;-4.02;73.08
7668;BME280;3876;42.204;24.686;2023-02-11T00:59:37;101348.00;;;-4.10;73.20
7668;BME280;3876;42.204;24.686;2023-02-11T01:02:06;101352.22;;;-4.09;73.21
7668;BME280;3876;42.204;24.686;2023-02-11T01:04:32;101348.00;;;-4.10;73.52
7668;BME280;3876;42.204;24.686;2023-02-11T01:06:59;101337.22;;;-4.22;73.55
7668;BME280;3876;42.204;24.686;2023-02-11T01:09:26;101358.00;;;-4.10;73.82
7668;BME280;3876;42.204;24.686;2023-02-11T01:11:53;101345.38;;;-4.12;73.85
7668;BME280;3876;42.204;24.686;2023-02-11T01:14:20;101343.00;;;-4.10;73.62
7668;BME280;3876;42.204;24.686;2023-02-11T01:16:46;101328.94;;;-4.21;73.79
7668;BME280;3876;42.204;24.686;2023-02-11T01:19:18;101349.34;;;-4.15;73.64
7668;BME280;3876;42.204;24.686;2023-02-11T01:21:45;101348.28;;;-4.19;74.04
7668;BME280;3876;42.204;24.686;2023-02-11T01:24:12;101348.63;;;-4.28;74.41
7668;BME280;3876;42.204;24.686;2023-02-11T01:26:39;101338.44;;;-4.31;74.44
7668;BME280;3876;42.204;24.686;2023-02-11T01:29:05;101340.13;;;-4.30;74.73
7668;BME280;3876;42.204;24.686;2023-02-11T01:31:33;101336.50;;;-4.35;74.85
7668;BME280;3876;42.204;24.686;2023-02-11T01:34:00;101328.91;;;-4.36;74.84
7668;BME280;3876;42.204;24.686;2023-02-11T01:36:28;101323.81;;;-4.38;75.03
7668;BME280;3876;42.204;24.686;2023-02-11T01:38:55;101316.13;;;-4.41;75.24
7668;BME280;3876;42.204;24.686;2023-02-11T01:41:22;101319.19;;;-4.45;75.50
7668;BME280;3876;42.204;24.686;2023-02-11T01:43:49;101287.88;;;-4.53;75.51
7668;BME280;3876;42.204;24.686;2023-02-11T01:46:33;101312.47;;;-4.46;75.89
7668;BME280;3876;42.204;24.686;2023-02-11T01:49:03;101312.47;;;-4.46;75.96
7668;BME280;3876;42.204;24.686;2023-02-11T01:51:35;101314.19;;;-4.45;76.09
7668;BME280;3876;42.204;24.686;2023-02-11T01:54:05;101310.66;;;-4.48;76.32
7668;BME280;3876;42.204;24.686;2023-02-11T01:56:51;101307.28;;;-4.49;76.42
7668;BME280;3876;42.204;24.686;2023-02-11T01:59:39;101304.50;;;-4.53;76.75
7668;BME280;3876;42.204;24.686;2023-02-11T02:02:10;101308.53;;;-4.55;76.98
7668;BME280;3876;42.204;24.686;2023-02-11T02:04:41;101308.66;;;-4.54;77.03
7668;BME280;3876;42.204;24.686;2023-02-11T02:07:18;101301.44;;;-4.49;77.16
7668;BME280;3876;42.204;24.686;2023-02-11T02:09:54;101302.25;;;-4.49;76.82
7668;BME280;3876;42.204;24.686;2023-02-11T02:12:23;101299.00;;;-4.48;76.84
7668;BME280;3876;42.204;24.686;2023-02-11T02:14:50;101299.19;;;-4.45;76.42
7668;BME280;3876;42.204;24.686;2023-02-11T02:17:27;101291.72;;;-4.58;76.33
7668;BME280;3876;42.204;24.686;2023-02-11T02:20:23;101293.81;;;-4.51;76.40
7668;BME280;3876;42.204;24.686;2023-02-11T02:23:27;101291.13;;;-4.54;76.53
7668;BME280;3876;42.204;24.686;2023-02-11T02:26:34;101289.31;;;-4.56;77.24
7668;BME280;3876;42.204;24.686;2023-02-11T02:29:21;101290.84;;;-4.58;77.61
7668;BME280;3876;42.204;24.686;2023-02-11T02:35:04;101302.28;;;-4.62;78.20
7668;BME280;3876;42.204;24.686;2023-02-11T02:37:36;101309.81;;;-4.62;78.35
7668;BME280;3876;42.204;24.686;2023-02-11T02:40:10;101296.94;;;-4.81;79.04
7668;BME280;3876;42.204;24.686;2023-02-11T02:42:39;101302.13;;;-4.78;79.22
7668;BME280;3876;42.204;24.686;2023-02-11T02:45:08;101307.94;;;-4.79;79.13
7668;BME280;3876;42.204;24.686;2023-02-11T02:47:38;101305.63;;;-4.76;79.11
7668;BME280;3876;42.204;24.686;2023-02-11T02:50:05;101306.13;;;-4.82;79.20
7668;BME280;3876;42.204;24.686;2023-02-11T02:52:38;101313.69;;;-4.80;79.25
7668;BME280;3876;42.204;24.686;2023-02-11T02:55:17;101309.88;;;-4.88;79.01
7668;BME280;3876;42.204;24.686;2023-02-11T02:58:05;101309.97;;;-5.00;79.23
7668;BME280;3876;42.204;24.686;2023-02-11T03:00:40;101297.75;;;-4.95;79.11
7668;BME280;3876;42.204;24.686;2023-02-11T03:03:22;101306.22;;;-4.93;79.06
7668;BME280;3876;42.204;24.686;2023-02-11T03:05:58;101296.03;;;-4.96;78.98
7668;BME280;3876;42.204;24.686;2023-02-11T03:08:33;101308.31;;;-4.86;78.92
7668;BME280;3876;42.204;24.686;2023-02-11T03:11:01;101306.94;;;-4.81;78.85
7668;BME280;3876;42.204;24.686;2023-02-11T03:13:30;101311.97;;;-4.81;78.39
7668;BME280;3876;42.204;24.686;2023-02-11T03:16:01;101296.38;;;-4.90;78.53
7668;BME280;3876;42.204;24.686;2023-02-11T03:18:34;101309.38;;;-4.83;78.21
7668;BME280;3876;42.204;24.686;2023-02-11T03:21:04;101306.94;;;-4.81;78.05
7668;BME280;3876;42.204;24.686;2023-02-11T03:23:35;101307.75;;;-4.82;78.10
7668;BME280;3876;42.204;24.686;2023-02-11T03:26:06;101303.50;;;-4.83;78.17
7668;BME280;3876;42.204;24.686;2023-02-11T03:28:41;101308.91;;;-4.90;78.50
7668;BME280;3876;42.204;24.686;2023-02-11T03:31:13;101322.97;;;-4.92;78.56
7668;BME280;3876;42.204;24.686;2023-02-11T03:33:49;101321.41;;;-4.90;78.81
7668;BME280;3876;42.204;24.686;2023-02-11T03:36:22;101326.41;;;-4.90;78.83
7668;BME280;3876;42.204;24.686;2023-02-11T03:38:52;101313.13;;;-4.89;78.72
7668;BME280;3876;42.204;24.686;2023-02-11T03:41:23;101314.88;;;-4.88;78.34
7668;BME280;3876;42.204;24.686;2023-02-11T03:43:53;101320.16;;;-4.84;78.11
7668;BME280;3876;42.204;24.686;2023-02-11T03:46:26;101318.34;;;-4.86;78.15
7668;BME280;3876;42.204;24.686;2023-02-11T03:48:58;101316.59;;;-4.87;78.29
7668;BME280;3876;42.204;24.686;2023-02-11T03:51:28;101317.28;;;-4.90;78.13
7668;BME280;3876;42.204;24.686;2023-02-11T03:53:57;101309.47;;;-4.94;78.02
7668;BME280;3876;42.204;24.686;2023-02-11T03:56:31;101314.28;;;-4.97;78.12
7668;BME280;3876;42.204;24.686;2023-02-11T03:58:58;101308.16;;;-5.02;77.92
7668;BME280;3876;42.204;24.686;2023-02-11T04:01:25;101314.03;;;-5.02;78.14
7668;BME280;3876;42.204;24.686;2023-02-11T04:03:52;101320.66;;;-5.02;78.22
7668;BME280;3876;42.204;24.686;2023-02-11T04:06:20;101317.38;;;-5.01;78.44
7668;BME280;3876;42.204;24.686;2023-02-11T04:08:47;101314.03;;;-5.15;78.05
7668;BME280;3876;42.204;24.686;2023-02-11T04:11:14;101308.25;;;-5.27;78.49
7668;BME280;3876;42.204;24.686;2023-02-11T04:13:40;101321.53;;;-5.28;78.60
7668;BME280;3876;42.204;24.686;2023-02-11T04:16:07;101322.19;;;-5.31;78.77
7668;BME280;3876;42.204;24.686;2023-02-11T04:18:34;101315.47;;;-5.32;79.02
7668;BME280;3876;42.204;24.686;2023-02-11T04:21:01;101318.72;;;-5.33;78.98
7668;BME280;3876;42.204;24.686;2023-02-11T04:23:29;101317.97;;;-5.32;78.91
7668;BME280;3876;42.204;24.686;2023-02-11T04:25:56;101317.97;;;-5.32;79.09
7668;BME280;3876;42.204;24.686;2023-02-11T04:28:22;101310.06;;;-5.38;79.03
7668;BME280;3876;42.204;24.686;2023-02-11T04:30:51;101299.50;;;-5.47;79.15
7668;BME280;3876;42.204;24.686;2023-02-11T04:33:17;101315.56;;;-5.43;79.34
7668;BME280;3876;42.204;24.686;2023-02-11T04:35:44;101307.19;;;-5.44;79.78
7668;BME280;3876;42.204;24.686;2023-02-11T04:38:11;101304.31;;;-5.50;79.83
7668;BME280;3876;42.204;24.686;2023-02-11T04:40:39;101304.19;;;-5.51;80.05
7668;BME280;3876;42.204;24.686;2023-02-11T04:43:07;101296.00;;;-5.49;80.17
7668;BME280;3876;42.204;24.686;2023-02-11T04:45:34;101298.50;;;-5.49;80.24
7668;BME280;3876;42.204;24.686;2023-02-11T04:48:01;101301.88;;;-5.48;80.13
7668;BME280;3876;42.204;24.686;2023-02-11T04:50:28;101297.75;;;-5.48;79.85
7668;BME280;3876;42.204;24.686;2023-02-11T04:52:55;101310.81;;;-5.52;79.96
7668;BME280;3876;42.204;24.686;2023-02-11T04:55:22;101287.19;;;-5.57;80.40
7668;BME280;3876;42.204;24.686;2023-02-11T04:57:51;101305.81;;;-5.52;80.38
7668;BME280;3876;42.204;24.686;2023-02-11T05:00:17;101311.50;;;-5.54;80.33
7668;BME280;3876;42.204;24.686;2023-02-11T05:02:44;101298.13;;;-5.55;80.28
7668;BME280;3876;42.204;24.686;2023-02-11T05:05:11;101297.38;;;-5.54;80.37
7668;BME280;3876;42.204;24.686;2023-02-11T05:07:38;101295.63;;;-5.55;80.31
7668;BME280;3876;42.204;24.686;2023-02-11T05:10:05;101293.97;;;-5.67;80.47
7668;BME280;3876;42.204;24.686;2023-02-11T05:12:32;101303.69;;;-5.59;80.53
7668;BME280;3876;42.204;24.686;2023-02-11T05:15:00;101306.97;;;-5.60;80.50
7668;BME280;3876;42.204;24.686;2023-02-11T05:17:27;101297.47;;;-5.65;80.40
7668;BME280;3876;42.204;24.686;2023-02-11T05:19:53;101302.03;;;-5.71;80.52
7668;BME280;3876;42.204;24.686;2023-02-11T05:22:22;101301.97;;;-5.73;80.57
7668;BME280;3876;42.204;24.686;2023-02-11T05:24:49;101296.66;;;-5.77;80.86
7668;BME280;3876;42.204;24.686;2023-02-11T05:27:17;101304.63;;;-5.83;81.50
7668;BME280;3876;42.204;24.686;2023-02-11T05:29:43;101303.66;;;-5.85;81.73
7668;BME280;3876;42.204;24.686;2023-02-11T05:32:12;101307.88;;;-5.97;82.09
7668;BME280;3876;42.204;24.686;2023-02-11T05:34:38;101309.59;;;-5.96;82.49
7668;BME280;3876;42.204;24.686;2023-02-11T05:37:05;101296.59;;;-6.04;82.63
7668;BME280;3876;42.204;24.686;2023-02-11T05:39:32;101305.56;;;-5.94;82.90
7668;BME280;3876;42.204;24.686;2023-02-11T05:41:59;101305.56;;;-5.94;82.87
7668;BME280;3876;42.204;24.686;2023-02-11T05:44:25;101307.31;;;-5.93;82.58
7668;BME280;3876;42.204;24.686;2023-02-11T05:46:52;101301.75;;;-5.89;82.53
7668;BME280;3876;42.204;24.686;2023-02-11T05:49:20;101305.38;;;-5.84;82.43
7668;BME280;3876;42.204;24.686;2023-02-11T05:51:47;101303.50;;;-5.88;82.49
7668;BME280;3876;42.204;24.686;2023-02-11T05:54:15;101312.81;;;-5.86;82.80
7668;BME280;3876;42.204;24.686;2023-02-11T05:56:42;101318.66;;;-5.85;82.88
7668;BME280;3876;42.204;24.686;2023-02-11T05:59:11;101298.88;;;-5.95;83.11
7668;BME280;3876;42.204;24.686;2023-02-11T06:01:38;101313.84;;;-5.82;83.46
7668;BME280;3876;42.204;24.686;2023-02-11T06:04:05;101314.25;;;-5.76;83.35
7668;BME280;3876;42.204;24.686;2023-02-11T06:06:34;101303.28;;;-5.78;83.71
7668;BME280;3876;42.204;24.686;2023-02-11T06:09:01;101316.19;;;-5.72;83.77
7668;BME280;3876;42.204;24.686;2023-02-11T06:11:28;101303.09;;;-5.68;83.79
7668;BME280;3876;42.204;24.686;2023-02-11T06:13:55;101308.50;;;-5.62;83.95
7668;BME280;3876;42.204;24.686;2023-02-11T06:16:22;101281.97;;;-5.73;84.20
7668;BME280;3876;42.204;24.686;2023-02-11T06:18:48;101289.66;;;-5.70;84.66
7668;BME280;3876;42.204;24.686;2023-02-11T06:21:15;101310.63;;;-5.55;85.30
7668;BME280;3876;42.204;24.686;2023-02-11T06:23:43;101298.69;;;-5.59;85.89
7668;BME280;3876;42.204;24.686;2023-02-11T06:26:16;101299.50;;;-5.47;86.24
7668;BME280;3876;42.204;24.686;2023-02-11T06:28:44;101307.47;;;-5.39;86.23
7668;BME280;3876;42.204;24.686;2023-02-11T06:31:11;101306.81;;;-5.37;86.30
7668;BME280;3876;42.204;24.686;2023-02-11T06:33:38;101313.91;;;-5.30;86.31
7668;BME280;3876;42.204;24.686;2023-02-11T06:36:12;101318.53;;;-5.22;86.23
7668;BME280;3876;42.204;24.686;2023-02-11T06:38:39;101318.84;;;-5.18;86.18
7668;BME280;3876;42.204;24.686;2023-02-11T06:41:08;101321.53;;;-5.15;86.40
7668;BME280;3876;42.204;24.686;2023-02-11T06:43:35;101311.03;;;-5.09;86.61
7668;BME280;3876;42.204;24.686;2023-02-11T06:46:02;101304.59;;;-5.06;87.14
7668;BME280;3876;42.204;24.686;2023-02-11T06:48:28;101306.78;;;-5.10;87.86
7668;BME280;3876;42.204;24.686;2023-02-11T06:50:55;101303.91;;;-5.03;87.72
7668;BME280;3876;42.204;24.686;2023-02-11T06:53:22;101231.44;;;-5.43;88.38
7668;BME280;3876;42.204;24.686;2023-02-11T06:55:49;101302.94;;;-4.92;89.01
7668;BME280;3876;42.204;24.686;2023-02-11T06:58:17;101293.31;;;-4.86;88.79
7668;BME280;3876;42.204;24.686;2023-02-11T07:00:44;101297.13;;;-4.78;88.73
7668;BME280;3876;42.204;24.686;2023-02-11T07:03:11;101300.13;;;-4.70;88.51
7668;BME280;3876;42.204;24.686;2023-02-11T07:05:41;101300.41;;;-4.66;88.81
7668;BME280;3876;42.204;24.686;2023-02-11T07:08:08;101291.53;;;-4.61;88.92
7668;BME280;3876;42.204;24.686;2023-02-11T07:10:35;101266.69;;;-4.58;89.06
7668;BME280;3876;42.204;24.686;2023-02-11T07:13:01;101275.13;;;-4.43;89.39
7668;BME280;3876;42.204;24.686;2023-02-11T07:15:30;101281.97;;;-4.26;89.08
7668;BME280;3876;42.204;24.686;2023-02-11T07:17:57;101284.06;;;-4.18;88.82
7668;BME280;3876;42.204;24.686;2023-02-11T07:20:24;101286.31;;;-4.08;88.60
7668;BME280;3876;42.204;24.686;2023-02-11T07:22:51;101284.47;;;-3.98;88.20
7668;BME280;3876;42.204;24.686;2023-02-11T07:25:18;101295.69;;;-3.91;88.26
7668;BME280;3876;42.204;24.686;2023-02-11T07:27:45;101288.69;;;-3.82;89.02
7668;BME280;3876;42.204;24.686;2023-02-11T07:30:12;101288.09;;;-3.78;89.02
7668;BME280;3876;42.204;24.686;2023-02-11T07:32:41;101282.75;;;-3.69;88.90
7668;BME280;3876;42.204;24.686;2023-02-11T07:35:07;101284.13;;;-3.60;89.96
7668;BME280;3876;42.204;24.686;2023-02-11T07:37:34;101280.31;;;-3.53;89.90
7668;BME280;3876;42.204;24.686;2023-02-11T07:40:02;101279.50;;;-3.38;90.07
7668;BME280;3876;42.204;24.686;2023-02-11T07:42:29;101281.31;;;-3.21;90.06
7668;BME280;3876;42.204;24.686;2023-02-11T07:44:56;101281.09;;;-3.09;89.60
7668;BME280;3876;42.204;24.686;2023-02-11T07:47:23;101286.72;;;-2.98;89.64
7668;BME280;3876;42.204;24.686;2023-02-11T07:49:51;101284.09;;;-2.85;89.47
7668;BME280;3876;42.204;24.686;2023-02-11T07:52:18;101280.78;;;-2.68;89.52
7668;BME280;3876;42.204;24.686;2023-02-11T07:54:47;101268.66;;;-2.44;88.89
7668;BME280;3876;42.204;24.686;2023-02-11T07:57:13;101261.66;;;-2.18;88.72
7668;BME280;3876;42.204;24.686;2023-02-11T07:59:40;101268.72;;;-1.94;88.53
7668;BME280;3876;42.204;24.686;2023-02-11T08:02:07;101267.53;;;-1.67;87.42
7668;BME280;3876;42.204;24.686;2023-02-11T08:04:37;101265.72;;;-1.36;86.61
7668;BME280;3876;42.204;24.686;2023-02-11T08:07:05;101271.59;;;-1.18;85.49
7668;BME280;3876;42.204;24.686;2023-02-11T08:09:31;101260.94;;;-0.94;85.04
7668;BME280;3876;42.204;24.686;2023-02-11T08:11:59;101262.97;;;-0.68;83.44
7668;BME280;3876;42.204;24.686;2023-02-11T08:14:25;101259.91;;;-0.42;82.13
7668;BME280;3876;42.204;24.686;2023-02-11T08:16:52;101254.91;;;-0.23;81.14
7668;BME280;3876;42.204;24.686;2023-02-11T08:19:19;101234.28;;;-0.13;80.35
7668;BME280;3876;42.204;24.686;2023-02-11T08:21:46;101247.50;;;0.22;79.89
7668;BME280;3876;42.204;24.686;2023-02-11T08:24:14;101251.72;;;0.42;79.16
7668;BME280;3876;42.204;24.686;2023-02-11T08:26:41;101246.88;;;0.69;78.12
7668;BME280;3876;42.204;24.686;2023-02-11T08:29:10;101249.38;;;0.89;76.83
7668;BME280;3876;42.204;24.686;2023-02-11T08:31:39;101251.78;;;1.09;75.36
7668;BME280;3876;42.204;24.686;2023-02-11T08:34:07;101249.91;;;1.27;74.30
7668;BME280;3876;42.204;24.686;2023-02-11T08:36:36;101238.75;;;1.44;73.20
7668;BME280;3876;42.204;24.686;2023-02-11T08:39:05;101232.47;;;1.56;71.77
7668;BME280;3876;42.204;24.686;2023-02-11T08:41:34;101237.16;;;1.70;69.96
7668;BME280;3876;42.204;24.686;2023-02-11T08:44:00;101240.25;;;1.86;71.28
7668;BME280;3876;42.204;24.686;2023-02-11T08:46:27;101237.53;;;2.05;70.13
7668;BME280;3876;42.204;24.686;2023-02-11T08:48:54;101231.06;;;2.13;70.19
7668;BME280;3876;42.204;24.686;2023-02-11T08:51:23;101207.19;;;2.05;69.06
7668;BME280;3876;42.204;24.686;2023-02-11T08:53:52;101230.91;;;2.34;69.57
7668;BME280;3876;42.204;24.686;2023-02-11T08:56:20;101224.13;;;2.33;69.41
7668;BME280;3876;42.204;24.686;2023-02-11T08:58:49;101229.28;;;2.63;67.73
7668;BME280;3876;42.204;24.686;2023-02-11T09:01:18;101231.09;;;2.67;65.71
7668;BME280;3876;42.204;24.686;2023-02-11T09:03:45;101223.97;;;2.82;65.94
7668;BME280;3876;42.204;24.686;2023-02-11T09:06:13;101225.25;;;2.96;66.33
7668;BME280;3876;42.204;24.686;2023-02-11T09:08:44;101202.22;;;2.89;65.02
7668;BME280;3876;42.204;24.686;2023-02-11T09:11:11;101211.34;;;3.12;64.29
7668;BME280;3876;42.204;24.686;2023-02-11T09:13:39;101217.44;;;3.18;63.99
7668;BME280;3876;42.204;24.686;2023-02-11T09:16:15;101218.50;;;3.27;64.61
7668;BME280;3876;42.204;24.686;2023-02-11T09:18:42;101213.25;;;3.49;63.46
7668;BME280;3876;42.204;24.686;2023-02-11T09:21:10;101214.28;;;3.55;61.56
7668;BME280;3876;42.204;24.686;2023-02-11T09:23:37;101197.34;;;3.56;58.56
7668;BME280;3876;42.204;24.686;2023-02-11T09:26:07;101190.84;;;3.65;57.36
7668;BME280;3876;42.204;24.686;2023-02-11T09:28:34;101200.78;;;3.89;56.67
7668;BME280;3876;42.204;24.686;2023-02-11T09:31:04;101201.78;;;3.96;56.58
7668;BME280;3876;42.204;24.686;2023-02-11T09:33:32;101200.56;;;4.14;55.29
7668;BME280;3876;42.204;24.686;2023-02-11T09:35:59;101206.84;;;4.29;53.27
7668;BME280;3876;42.204;24.686;2023-02-11T09:38:26;101198.56;;;4.36;51.45
7668;BME280;3876;42.204;24.686;2023-02-11T09:40:53;101197.09;;;4.47;52.90
7668;BME280;3876;42.204;24.686;2023-02-11T09:43:22;101202.38;;;4.56;51.03
7668;BME280;3876;42.204;24.686;2023-02-11T09:45:50;101142.66;;;4.34;51.45
7668;BME280;3876;42.204;24.686;2023-02-11T09:48:20;101193.66;;;4.82;51.84
7668;BME280;3876;42.204;24.686;2023-02-11T09:50:51;101183.97;;;5.03;51.13
7668;BME280;3876;42.204;24.686;2023-02-11T09:53:22;101183.06;;;5.01;49.35
7668;BME280;3876;42.204;24.686;2023-02-11T09:55:52;101147.34;;;4.95;51.04
7668;BME280;3876;42.204;24.686;2023-02-11T09:58:25;101157.06;;;5.13;51.55
7668;BME280;3876;42.204;24.686;2023-02-11T10:00:59;101144.50;;;5.22;51.28
7668;BME280;3876;42.204;24.686;2023-02-11T10:03:46;101136.44;;;5.43;50.88
7668;BME280;3876;42.204;24.686;2023-02-11T10:06:30;101128.63;;;5.34;49.59
7668;BME280;3876;42.204;24.686;2023-02-11T10:09:04;101123.63;;;5.40;50.38
7668;BME280;3876;42.204;24.686;2023-02-11T10:11:39;101123.88;;;5.52;49.77
7668;BME280;3876;42.204;24.686;2023-02-11T10:14:21;101118.06;;;5.59;48.76
7668;BME280;3876;42.204;24.686;2023-02-11T10:16:57;101115.50;;;5.57;47.69
7668;BME280;3876;42.204;24.686;2023-02-11T10:19:37;101083.59;;;5.26;47.94
7668;BME280;3876;42.204;24.686;2023-02-11T10:22:12;101107.63;;;5.44;48.60
7668;BME280;3876;42.204;24.686;2023-02-11T10:24:41;101094.13;;;5.48;49.27
7668;BME280;3876;42.204;24.686;2023-02-11T10:27:18;101089.25;;;5.60;48.26
7668;BME280;3876;42.204;24.686;2023-02-11T10:29:48;101089.38;;;5.69;47.79
7668;BME280;3876;42.204;24.686;2023-02-11T10:32:27;101087.88;;;5.80;47.99
7668;BME280;3876;42.204;24.686;2023-02-11T10:35:00;101074.53;;;5.92;46.45
7668;BME280;3876;42.204;24.686;2023-02-11T10:37:30;101079.81;;;6.05;47.80
7668;BME280;3876;42.204;24.686;2023-02-11T10:39:57;101043.22;;;5.97;46.24
7668;BME280;3876;42.204;24.686;2023-02-11T10:42:23;101053.69;;;6.17;47.99
7668;BME280;3876;42.204;24.686;2023-02-11T10:44:56;101046.69;;;6.01;45.09
7668;BME280;3876;42.204;24.686;2023-02-11T10:47:26;101046.47;;;5.87;44.61
7668;BME280;3876;42.204;24.686;2023-02-11T10:49:54;101031.13;;;5.84;45.36
7668;BME280;3876;42.204;24.686;2023-02-11T10:52:28;101030.25;;;5.85;44.71
7668;BME280;3876;42.204;24.686;2023-02-11T10:55:04;101011.63;;;5.85;43.64
7668;BME280;3876;42.204;24.686;2023-02-11T10:57:35;100982.72;;;5.81;42.91
7668;BME280;3876;42.204;24.686;2023-02-11T11:00:18;101013.72;;;6.11;42.90
7668;BME280;3876;42.204;24.686;2023-02-11T11:02:53;101003.66;;;6.20;42.26
7668;BME280;3876;42.204;24.686;2023-02-11T11:05:26;100974.81;;;6.20;43.53
7668;BME280;3876;42.204;24.686;2023-02-11T11:07:56;100973.94;;;6.21;41.77
7668;BME280;3876;42.204;24.686;2023-02-11T11:10:39;100990.44;;;6.49;42.67
7668;BME280;3876;42.204;24.686;2023-02-11T11:13:26;100981.97;;;6.53;42.11
7668;BME280;3876;42.204;24.686;2023-02-11T11:16:16;100980.34;;;6.58;41.36
7668;BME280;3876;42.204;24.686;2023-02-11T11:18:45;100968.38;;;6.51;41.73
7668;BME280;3876;42.204;24.686;2023-02-11T11:21:15;100969.38;;;6.65;41.36
7668;BME280;3876;42.204;24.686;2023-02-11T11:23:49;100965.22;;;6.73;40.10
7668;BME280;3876;42.204;24.686;2023-02-11T11:26:18;100966.97;;;6.80;39.59
7668;BME280;3876;42.204;24.686;2023-02-11T11:28:57;100964.56;;;6.94;42.22
7668;BME280;3876;42.204;24.686;2023-02-11T11:31:29;100950.19;;;7.00;40.56
7668;BME280;3876;42.204;24.686;2023-02-11T11:33:58;100951.88;;;7.01;40.00
7668;BME280;3876;42.204;24.686;2023-02-11T11:36:34;100950.19;;;7.00;40.54
7668;BME280;3876;42.204;24.686;2023-02-11T11:39:15;100946.03;;;7.11;39.88
7668;BME280;3876;42.204;24.686;2023-02-11T11:41:51;100940.13;;;7.18;40.31
7668;BME280;3876;42.204;24.686;2023-02-11T11:44:26;100924.03;;;7.24;40.40
7668;BME280;3876;42.204;24.686;2023-02-11T11:47:14;100921.56;;;7.34;38.91
7668;BME280;3876;42.204;24.686;2023-02-11T11:49:48;100917.38;;;7.43;38.83
7668;BME280;3876;42.204;24.686;2023-02-11T11:52:19;100913.16;;;7.51;38.74
7668;BME280;3876;42.204;24.686;2023-02-11T11:54:55;100891.81;;;7.35;37.92
7668;BME280;3876;42.204;24.686;2023-02-11T11:57:27;100908.13;;;7.58;38.27
7668;BME280;3876;42.204;24.686;2023-02-11T11:59:57;100887.69;;;7.57;37.84
7668;BME280;3876;42.204;24.686;2023-02-11T12:02:52;100890.31;;;7.69;37.38
7668;BME280;3876;42.204;24.686;2023-02-11T12:05:26;100896.31;;;7.83;37.55
7668;BME280;3876;42.204;24.686;2023-02-11T12:08:06;100890.38;;;7.88;36.56
7668;BME280;3876;42.204;24.686;2023-02-11T12:10:49;100882.75;;;7.93;36.68
7668;BME280;3876;42.204;24.686;2023-02-11T12:13:30;100891.28;;;7.98;36.55
7668;BME280;3876;42.204;24.686;2023-02-11T12:16:06;100875.91;;;7.83;36.27
7668;BME280;3876;42.204;24.686;2023-02-11T12:19:00;100865.69;;;7.80;36.46
7668;BME280;3876;42.204;24.686;2023-02-11T12:21:37;100871.69;;;7.89;38.11
7668;BME280;3876;42.204;24.686;2023-02-11T12:24:18;100875.91;;;7.86;37.32
7668;BME280;3876;42.204;24.686;2023-02-11T12:26:53;100865.66;;;7.77;37.60
7668;BME280;3876;42.204;24.686;2023-02-11T12:29:31;100863.06;;;7.68;38.06
7668;BME280;3876;42.204;24.686;2023-02-11T12:32:12;100860.50;;;7.62;38.34
7668;BME280;3876;42.204;24.686;2023-02-11T12:35:00;100858.84;;;7.73;38.08
7668;BME280;3876;42.204;24.686;2023-02-11T12:37:44;100851.16;;;7.62;38.39
7668;BME280;3876;42.204;24.686;2023-02-11T12:40:16;100853.72;;;7.73;38.82
7668;BME280;3876;42.204;24.686;2023-02-11T12:42:55;100862.25;;;7.75;37.92
7668;BME280;3876;42.204;24.686;2023-02-11T12:46:13;100857.06;;;7.63;37.90
7668;BME280;3876;42.204;24.686;2023-02-11T12:48:56;100852.81;;;7.60;38.06
7668;BME280;3876;42.204;24.686;2023-02-11T12:51:36;100841.75;;;7.55;38.04
7668;BME280;3876;42.204;24.686;2023-02-11T12:54:14;100837.44;;;7.45;37.80
7668;BME280;3876;42.204;24.686;2023-02-11T12:56:45;100841.69;;;7.45;37.63
7668;BME280;3876;42.204;24.686;2023-02-11T12:59:25;100841.69;;;7.48;37.96
7668;BME280;3876;42.204;24.686;2023-02-11T13:01:56;100830.69;;;7.58;37.54
7668;BME280;3876;42.204;24.686;2023-02-11T13:04:28;100828.16;;;7.64;37.63
7668;BME280;3876;42.204;24.686;2023-02-11T13:07:02;100819.69;;;7.65;37.60
7668;BME280;3876;42.204;24.686;2023-02-11T13:09:34;100809.47;;;7.71;38.05
7668;BME280;3876;42.204;24.686;2023-02-11T13:12:05;100817.19;;;7.89;38.26
7668;BME280;3876;42.204;24.686;2023-02-11T13:14:47;100817.22;;;7.93;36.37
7668;BME280;3876;42.204;24.686;2023-02-11T13:17:21;100803.56;;;7.81;37.23
7668;BME280;3876;42.204;24.686;2023-02-11T13:19:56;100818.06;;;7.91;37.03
7668;BME280;3876;42.204;24.686;2023-02-11T13:22:30;100807.84;;;7.85;36.30
7668;BME280;3876;42.204;24.686;2023-02-11T13:25:04;100795.91;;;7.81;36.41
7668;BME280;3876;42.204;24.686;2023-02-11T13:27:37;100801.03;;;7.87;36.71